sensor_id;sensor_type;location;lat;lon;timestamp;temperature;humidity
12948;DHT22;6539;49.476;8.484;2024-02-26T00:01:20;10.00;99.90
12948;DHT22;6539;49.476;8.484;2024-02-26T00:04:06;10.10;99.90
12948;DHT22;6539;49.476;8.484;2024-02-26T00:06:52;10.10;99.90
12948;DHT22;6539;49.476;8.484;2024-02-26T00:09:42;10.10;99.90
12948;DHT22;6539;49.476;8.484;2024-02-26T00:12:30;10.20;99.90
12948;DHT22;6539;49.476;8.484;2024-02-26T00:15:19;10.10;99.90
12948;DHT22;6539;49.476;8.484;2024-02-26T00:18:07;10.20;99.90
12948;DHT22;6539;49.476;8.484;2024-02-26T00:20:53;10.20;99.90
12948;DHT22;6539;49.476;8.484;2024-02-26T00:23:44;10.10;99.90
12948;DHT22;6539;49.476;8.484;2024-02-26T00:26:30;10.10;99.90
12948;DHT22;6539;49.476;8.484;2024-02-26T00:29:19;10.00;99.90
12948;DHT22;6539;49.476;8.484;2024-02-26T00:32:08;10.00;99.90
12948;DHT22;6539;49.476;8.484;2024-02-26T00:34:54;10.00;99.90
12948;DHT22;6539;49.476;8.484;2024-02-26T00:37:43;10.10;99.90
12948;DHT22;6539;49.476;8.484;2024-02-26T00:40:29;10.10;99.90
12948;DHT22;6539;49.476;8.484;2024-02-26T00:43:16;10.00;99.90
12948;DHT22;6539;49.476;8.484;2024-02-26T00:46:02;10.00;99.90
12948;DHT22;6539;49.476;8.484;2024-02-26T00:48:49;10.00;99.90
12948;DHT22;6539;49.476;8.484;2024-02-26T00:51:35;10.00;99.90
12948;DHT22;6539;49.476;8.484;2024-02-26T00:54:21;10.10;99.90
12948;DHT22;6539;49.476;8.484;2024-02-26T00:57:07;10.10;99.90
12948;DHT22;6539;49.476;8.484;2024-02-26T00:59:53;10.10;99.90
12948;DHT22;6539;49.476;8.484;2024-02-26T01:02:41;10.10;99.90
12948;DHT22;6539;49.476;8.484;2024-02-26T01:05:35;10.10;99.90
12948;DHT22;6539;49.476;8.484;2024-02-26T01:08:23;10.00;99.90
12948;DHT22;6539;49.476;8.484;2024-02-26T01:11:09;10.00;99.90
12948;DHT22;6539;49.476;8.484;2024-02-26T01:13:55;10.10;99.90
12948;DHT22;6539;49.476;8.484;2024-02-26T01:16:44;10.00;99.90
12948;DHT22;6539;49.476;8.484;2024-02-26T01:19:35;10.10;99.90
12948;DHT22;6539;49.476;8.484;2024-02-26T01:22:21;10.00;99.90
12948;DHT22;6539;49.476;8.484;2024-02-26T01:25:08;10.00;99.90
12948;DHT22;6539;49.476;8.484;2024-02-26T01:27:55;10.00;99.90
12948;DHT22;6539;49.476;8.484;2024-02-26T01:30:41;10.00;99.90
12948;DHT22;6539;49.476;8.484;2024-02-26T01:33:27;10.00;99.90
12948;DHT22;6539;49.476;8.484;2024-02-26T01:36:13;10.00;99.90
12948;DHT22;6539;49.476;8.484;2024-02-26T01:38:59;9.90;99.90
12948;DHT22;6539;49.476;8.484;2024-02-26T01:41:48;9.90;99.90
12948;DHT22;6539;49.476;8.484;2024-02-26T01:44:34;9.90;99.90
12948;DHT22;6539;49.476;8.484;2024-02-26T01:47:29;9.90;99.90
12948;DHT22;6539;49.476;8.484;2024-02-26T01:50:15;9.80;99.90
12948;DHT22;6539;49.476;8.484;2024-02-26T01:53:07;9.80;99.90
12948;DHT22;6539;49.476;8.484;2024-02-26T01:55:55;9.80;99.90
12948;DHT22;6539;49.476;8.484;2024-02-26T01:58:44;9.70;99.90
12948;DHT22;6539;49.476;8.484;2024-02-26T02:01:32;9.70;99.90
12948;DHT22;6539;49.476;8.484;2024-02-26T02:04:19;9.70;99.90
12948;DHT22;6539;49.476;8.484;2024-02-26T02:07:15;9.70;99.90
12948;DHT22;6539;49.476;8.484;2024-02-26T02:10:01;9.60;99.90
12948;DHT22;6539;49.476;8.484;2024-02-26T02:12:49;9.50;99.90
12948;DHT22;6539;49.476;8.484;2024-02-26T02:15:35;9.60;99.90
12948;DHT22;6539;49.476;8.484;2024-02-26T02:18:24;9.40;99.90
12948;DHT22;6539;49.476;8.484;2024-02-26T02:21:10;9.30;99.90
12948;DHT22;6539;49.476;8.484;2024-02-26T02:23:59;9.20;99.90
12948;DHT22;6539;49.476;8.484;2024-02-26T02:26:47;9.00;99.90
12948;DHT22;6539;49.476;8.484;2024-02-26T02:29:34;9.00;99.90
12948;DHT22;6539;49.476;8.484;2024-02-26T02:32:20;8.90;99.90
12948;DHT22;6539;49.476;8.484;2024-02-26T02:35:07;8.90;99.90
12948;DHT22;6539;49.476;8.484;2024-02-26T02:37:56;9.00;99.90
12948;DHT22;6539;49.476;8.484;2024-02-26T02:40:42;8.90;99.90
12948;DHT22;6539;49.476;8.484;2024-02-26T02:43:29;8.90;99.90
12948;DHT22;6539;49.476;8.484;2024-02-26T02:46:17;8.90;99.90
12948;DHT22;6539;49.476;8.484;2024-02-26T02:49:07;8.90;99.90
12948;DHT22;6539;49.476;8.484;2024-02-26T02:51:54;8.80;99.90
12948;DHT22;6539;49.476;8.484;2024-02-26T02:54:41;8.80;99.90
12948;DHT22;6539;49.476;8.484;2024-02-26T02:57:28;8.80;99.90
12948;DHT22;6539;49.476;8.484;2024-02-26T03:00:19;8.80;99.90
12948;DHT22;6539;49.476;8.484;2024-02-26T03:03:08;8.70;99.90
12948;DHT22;6539;49.476;8.484;2024-02-26T03:05:54;8.70;99.90
12948;DHT22;6539;49.476;8.484;2024-02-26T03:08:43;8.70;99.90
12948;DHT22;6539;49.476;8.484;2024-02-26T03:11:31;8.70;99.90
12948;DHT22;6539;49.476;8.484;2024-02-26T03:14:20;8.70;99.90
12948;DHT22;6539;49.476;8.484;2024-02-26T03:17:06;8.70;99.90
12948;DHT22;6539;49.476;8.484;2024-02-26T03:19:52;8.60;99.90
12948;DHT22;6539;49.476;8.484;2024-02-26T03:22:39;8.60;99.90
12948;DHT22;6539;49.476;8.484;2024-02-26T03:25:25;8.60;99.90
12948;DHT22;6539;49.476;8.484;2024-02-26T03:28:15;8.60;99.90
12948;DHT22;6539;49.476;8.484;2024-02-26T03:31:01;8.50;99.90
12948;DHT22;6539;49.476;8.484;2024-02-26T03:33:48;8.50;99.90
12948;DHT22;6539;49.476;8.484;2024-02-26T03:36:34;8.50;99.90
12948;DHT22;6539;49.476;8.484;2024-02-26T03:39:20;8.50;99.90
12948;DHT22;6539;49.476;8.484;2024-02-26T03:42:06;8.50;99.90
12948;DHT22;6539;49.476;8.484;2024-02-26T03:44:54;8.50;99.90
12948;DHT22;6539;49.476;8.484;2024-02-26T03:47:40;8.40;99.90
12948;DHT22;6539;49.476;8.484;2024-02-26T03:50:26;8.40;99.90
12948;DHT22;6539;49.476;8.484;2024-02-26T03:53:14;8.30;99.90
12948;DHT22;6539;49.476;8.484;2024-02-26T03:56:04;8.30;99.90
12948;DHT22;6539;49.476;8.484;2024-02-26T03:58:53;8.40;99.90
12948;DHT22;6539;49.476;8.484;2024-02-26T04:01:44;8.30;99.90
12948;DHT22;6539;49.476;8.484;2024-02-26T04:04:34;8.40;99.90
12948;DHT22;6539;49.476;8.484;2024-02-26T04:07:23;8.40;99.90
12948;DHT22;6539;49.476;8.484;2024-02-26T04:10:12;8.40;99.90
12948;DHT22;6539;49.476;8.484;2024-02-26T04:12:58;8.50;99.90
12948;DHT22;6539;49.476;8.484;2024-02-26T04:15:49;8.40;99.90
12948;DHT22;6539;49.476;8.484;2024-02-26T04:18:37;8.40;99.90
12948;DHT22;6539;49.476;8.484;2024-02-26T04:21:26;8.30;99.90
12948;DHT22;6539;49.476;8.484;2024-02-26T04:24:12;8.30;99.90
12948;DHT22;6539;49.476;8.484;2024-02-26T04:27:01;8.20;99.90
12948;DHT22;6539;49.476;8.484;2024-02-26T04:29:50;8.30;99.90
12948;DHT22;6539;49.476;8.484;2024-02-26T04:32:36;8.30;99.90
12948;DHT22;6539;49.476;8.484;2024-02-26T04:35:22;8.30;99.90
12948;DHT22;6539;49.476;8.484;2024-02-26T04:38:13;8.30;99.90
12948;DHT22;6539;49.476;8.484;2024-02-26T04:40:59;8.30;99.90
12948;DHT22;6539;49.476;8.484;2024-02-26T04:43:45;8.30;99.90
12948;DHT22;6539;49.476;8.484;2024-02-26T04:46:34;8.30;99.90
12948;DHT22;6539;49.476;8.484;2024-02-26T04:49:25;8.30;99.90
12948;DHT22;6539;49.476;8.484;2024-02-26T04:52:11;8.30;99.90
12948;DHT22;6539;49.476;8.484;2024-02-26T04:54:57;8.30;99.90
12948;DHT22;6539;49.476;8.484;2024-02-26T04:57:45;8.30;99.90
12948;DHT22;6539;49.476;8.484;2024-02-26T05:00:34;8.30;99.90
12948;DHT22;6539;49.476;8.484;2024-02-26T05:03:20;8.30;99.90
12948;DHT22;6539;49.476;8.484;2024-02-26T05:06:08;8.30;99.90
12948;DHT22;6539;49.476;8.484;2024-02-26T05:08:57;8.30;99.90
12948;DHT22;6539;49.476;8.484;2024-02-26T05:11:44;8.30;99.90
12948;DHT22;6539;49.476;8.484;2024-02-26T05:14:32;8.40;99.90
12948;DHT22;6539;49.476;8.484;2024-02-26T05:17:18;8.30;99.90
12948;DHT22;6539;49.476;8.484;2024-02-26T05:20:07;8.40;99.90
12948;DHT22;6539;49.476;8.484;2024-02-26T05:22:56;8.40;99.90
12948;DHT22;6539;49.476;8.484;2024-02-26T05:25:46;8.40;99.90
12948;DHT22;6539;49.476;8.484;2024-02-26T05:28:34;8.40;99.90
12948;DHT22;6539;49.476;8.484;2024-02-26T05:31:20;8.40;99.90
12948;DHT22;6539;49.476;8.484;2024-02-26T05:34:08;8.40;99.90
12948;DHT22;6539;49.476;8.484;2024-02-26T05:36:55;8.30;99.90
12948;DHT22;6539;49.476;8.484;2024-02-26T05:39:43;8.30;99.90
12948;DHT22;6539;49.476;8.484;2024-02-26T05:42:34;8.40;99.90
12948;DHT22;6539;49.476;8.484;2024-02-26T05:45:20;8.40;99.90
12948;DHT22;6539;49.476;8.484;2024-02-26T05:48:07;8.40;99.90
12948;DHT22;6539;49.476;8.484;2024-02-26T05:50:53;8.30;99.90
12948;DHT22;6539;49.476;8.484;2024-02-26T05:53:42;8.40;99.90
12948;DHT22;6539;49.476;8.484;2024-02-26T05:56:28;8.40;99.90
12948;DHT22;6539;49.476;8.484;2024-02-26T05:59:14;8.40;99.90
12948;DHT22;6539;49.476;8.484;2024-02-26T06:02:03;8.40;99.90
12948;DHT22;6539;49.476;8.484;2024-02-26T06:04:54;8.40;99.90
12948;DHT22;6539;49.476;8.484;2024-02-26T06:07:40;8.40;99.90
12948;DHT22;6539;49.476;8.484;2024-02-26T06:10:31;8.40;99.90
12948;DHT22;6539;49.476;8.484;2024-02-26T06:13:18;8.40;99.90
12948;DHT22;6539;49.476;8.484;2024-02-26T06:16:04;8.40;99.90
12948;DHT22;6539;49.476;8.484;2024-02-26T06:18:53;8.40;99.90
12948;DHT22;6539;49.476;8.484;2024-02-26T06:21:44;8.40;99.90
12948;DHT22;6539;49.476;8.484;2024-02-26T06:24:30;8.50;99.90
12948;DHT22;6539;49.476;8.484;2024-02-26T06:27:17;8.50;99.90
12948;DHT22;6539;49.476;8.484;2024-02-26T06:30:04;8.50;99.90
12948;DHT22;6539;49.476;8.484;2024-02-26T06:32:51;8.50;99.90
12948;DHT22;6539;49.476;8.484;2024-02-26T06:35:37;8.40;99.90
12948;DHT22;6539;49.476;8.484;2024-02-26T06:38:28;8.40;99.90
12948;DHT22;6539;49.476;8.484;2024-02-26T06:41:14;8.50;99.90
12948;DHT22;6539;49.476;8.484;2024-02-26T06:44:00;8.40;99.90
12948;DHT22;6539;49.476;8.484;2024-02-26T06:46:46;8.40;99.90
12948;DHT22;6539;49.476;8.484;2024-02-26T06:49:33;8.40;99.90
12948;DHT22;6539;49.476;8.484;2024-02-26T06:52:19;8.40;99.90
12948;DHT22;6539;49.476;8.484;2024-02-26T06:55:07;8.40;99.90
12948;DHT22;6539;49.476;8.484;2024-02-26T06:57:54;8.40;99.90
12948;DHT22;6539;49.476;8.484;2024-02-26T07:00:40;8.30;99.90
12948;DHT22;6539;49.476;8.484;2024-02-26T07:03:28;8.30;99.90
12948;DHT22;6539;49.476;8.484;2024-02-26T07:06:18;8.20;99.90
12948;DHT22;6539;49.476;8.484;2024-02-26T07:09:04;8.20;99.90
12948;DHT22;6539;49.476;8.484;2024-02-26T07:11:53;8.20;99.90
12948;DHT22;6539;49.476;8.484;2024-02-26T07:14:42;8.20;99.90
12948;DHT22;6539;49.476;8.484;2024-02-26T07:17:29;8.30;99.90
12948;DHT22;6539;49.476;8.484;2024-02-26T07:20:15;8.30;99.90
12948;DHT22;6539;49.476;8.484;2024-02-26T07:23:04;8.30;99.90
12948;DHT22;6539;49.476;8.484;2024-02-26T07:25:50;8.30;99.90
12948;DHT22;6539;49.476;8.484;2024-02-26T07:28:38;8.30;99.90
12948;DHT22;6539;49.476;8.484;2024-02-26T07:31:27;8.30;99.90
12948;DHT22;6539;49.476;8.484;2024-02-26T07:34:15;8.30;99.90
12948;DHT22;6539;49.476;8.484;2024-02-26T07:37:03;8.40;99.90
12948;DHT22;6539;49.476;8.484;2024-02-26T07:39:49;8.40;99.90
12948;DHT22;6539;49.476;8.484;2024-02-26T07:42:36;8.40;99.90
12948;DHT22;6539;49.476;8.484;2024-02-26T07:45:25;8.40;99.90
12948;DHT22;6539;49.476;8.484;2024-02-26T07:48:11;8.40;99.90
12948;DHT22;6539;49.476;8.484;2024-02-26T07:51:00;8.40;99.90
12948;DHT22;6539;49.476;8.484;2024-02-26T07:53:46;8.40;99.90
12948;DHT22;6539;49.476;8.484;2024-02-26T07:56:32;8.40;99.90
12948;DHT22;6539;49.476;8.484;2024-02-26T07:59:18;8.50;99.90
12948;DHT22;6539;49.476;8.484;2024-02-26T08:02:04;8.40;99.90
12948;DHT22;6539;49.476;8.484;2024-02-26T08:04:51;8.50;99.90
12948;DHT22;6539;49.476;8.484;2024-02-26T08:07:37;8.50;99.90
12948;DHT22;6539;49.476;8.484;2024-02-26T08:10:23;8.60;99.90
12948;DHT22;6539;49.476;8.484;2024-02-26T08:13:09;8.70;99.90
12948;DHT22;6539;49.476;8.484;2024-02-26T08:15:55;8.70;99.90
12948;DHT22;6539;49.476;8.484;2024-02-26T08:18:42;8.70;99.90
12948;DHT22;6539;49.476;8.484;2024-02-26T08:21:30;8.70;99.90
12948;DHT22;6539;49.476;8.484;2024-02-26T08:24:17;8.80;99.90
12948;DHT22;6539;49.476;8.484;2024-02-26T08:27:03;8.80;99.90
12948;DHT22;6539;49.476;8.484;2024-02-26T08:29:49;8.90;99.90
12948;DHT22;6539;49.476;8.484;2024-02-26T08:32:35;9.00;99.90
12948;DHT22;6539;49.476;8.484;2024-02-26T08:35:24;9.10;99.90
12948;DHT22;6539;49.476;8.484;2024-02-26T08:38:12;9.10;99.90
12948;DHT22;6539;49.476;8.484;2024-02-26T08:40:58;9.20;99.90
12948;DHT22;6539;49.476;8.484;2024-02-26T08:43:44;9.30;99.90
12948;DHT22;6539;49.476;8.484;2024-02-26T08:46:33;9.40;99.90
12948;DHT22;6539;49.476;8.484;2024-02-26T08:49:22;9.40;99.90
12948;DHT22;6539;49.476;8.484;2024-02-26T08:52:11;9.60;99.90
12948;DHT22;6539;49.476;8.484;2024-02-26T08:55:01;9.70;99.90
12948;DHT22;6539;49.476;8.484;2024-02-26T08:57:50;9.70;99.90
12948;DHT22;6539;49.476;8.484;2024-02-26T09:00:36;9.60;99.90
12948;DHT22;6539;49.476;8.484;2024-02-26T09:03:25;9.50;99.90
12948;DHT22;6539;49.476;8.484;2024-02-26T09:06:14;9.50;99.90
12948;DHT22;6539;49.476;8.484;2024-02-26T09:09:03;9.50;99.90
12948;DHT22;6539;49.476;8.484;2024-02-26T09:11:56;9.70;99.90
12948;DHT22;6539;49.476;8.484;2024-02-26T09:14:45;9.60;99.90
12948;DHT22;6539;49.476;8.484;2024-02-26T09:17:34;9.70;99.90
12948;DHT22;6539;49.476;8.484;2024-02-26T09:20:20;9.70;99.90
12948;DHT22;6539;49.476;8.484;2024-02-26T09:23:07;9.80;99.90
12948;DHT22;6539;49.476;8.484;2024-02-26T09:25:55;9.90;99.90
12948;DHT22;6539;49.476;8.484;2024-02-26T09:28:42;10.00;99.90
12948;DHT22;6539;49.476;8.484;2024-02-26T09:31:31;10.00;99.90
12948;DHT22;6539;49.476;8.484;2024-02-26T09:34:19;10.00;99.90
12948;DHT22;6539;49.476;8.484;2024-02-26T09:37:05;10.00;99.90
12948;DHT22;6539;49.476;8.484;2024-02-26T09:39:51;10.00;99.90
12948;DHT22;6539;49.476;8.484;2024-02-26T09:42:43;10.10;99.90
12948;DHT22;6539;49.476;8.484;2024-02-26T09:45:34;10.10;99.90
12948;DHT22;6539;49.476;8.484;2024-02-26T09:48:25;10.30;99.90
12948;DHT22;6539;49.476;8.484;2024-02-26T09:51:11;10.40;99.90
12948;DHT22;6539;49.476;8.484;2024-02-26T09:54:00;10.50;99.90
12948;DHT22;6539;49.476;8.484;2024-02-26T09:56:50;10.60;99.90
12948;DHT22;6539;49.476;8.484;2024-02-26T09:59:39;10.70;99.90
12948;DHT22;6539;49.476;8.484;2024-02-26T10:02:33;10.70;99.90
12948;DHT22;6539;49.476;8.484;2024-02-26T10:05:22;10.60;99.90
12948;DHT22;6539;49.476;8.484;2024-02-26T10:08:12;10.70;99.90
12948;DHT22;6539;49.476;8.484;2024-02-26T10:11:02;10.70;99.90
12948;DHT22;6539;49.476;8.484;2024-02-26T10:13:53;10.90;99.90
12948;DHT22;6539;49.476;8.484;2024-02-26T10:16:42;11.00;99.90
12948;DHT22;6539;49.476;8.484;2024-02-26T10:19:31;11.10;99.90
12948;DHT22;6539;49.476;8.484;2024-02-26T10:22:17;11.20;99.90
12948;DHT22;6539;49.476;8.484;2024-02-26T10:25:07;11.50;99.90
12948;DHT22;6539;49.476;8.484;2024-02-26T10:27:54;11.50;99.90
12948;DHT22;6539;49.476;8.484;2024-02-26T10:30:42;11.40;99.90
12948;DHT22;6539;49.476;8.484;2024-02-26T10:33:37;11.50;99.90
12948;DHT22;6539;49.476;8.484;2024-02-26T10:36:26;11.80;99.90
12948;DHT22;6539;49.476;8.484;2024-02-26T10:39:15;12.20;99.90
12948;DHT22;6539;49.476;8.484;2024-02-26T10:42:04;12.60;99.90
12948;DHT22;6539;49.476;8.484;2024-02-26T10:44:57;13.00;99.90
12948;DHT22;6539;49.476;8.484;2024-02-26T10:47:43;13.40;99.90
12948;DHT22;6539;49.476;8.484;2024-02-26T10:50:33;14.00;99.90
12948;DHT22;6539;49.476;8.484;2024-02-26T10:53:22;13.80;99.90
12948;DHT22;6539;49.476;8.484;2024-02-26T10:56:10;14.10;99.90
12948;DHT22;6539;49.476;8.484;2024-02-26T10:59:00;14.70;99.90
12948;DHT22;6539;49.476;8.484;2024-02-26T11:01:50;14.90;99.90
12948;DHT22;6539;49.476;8.484;2024-02-26T11:04:41;15.30;99.90
12948;DHT22;6539;49.476;8.484;2024-02-26T11:07:30;15.00;99.90
12948;DHT22;6539;49.476;8.484;2024-02-26T11:10:20;15.00;99.90
12948;DHT22;6539;49.476;8.484;2024-02-26T11:13:10;15.00;99.90
12948;DHT22;6539;49.476;8.484;2024-02-26T11:16:00;15.20;99.90
12948;DHT22;6539;49.476;8.484;2024-02-26T11:18:48;15.00;99.90
12948;DHT22;6539;49.476;8.484;2024-02-26T11:21:37;14.80;99.90
12948;DHT22;6539;49.476;8.484;2024-02-26T11:24:28;14.40;99.90
12948;DHT22;6539;49.476;8.484;2024-02-26T11:27:18;14.50;99.90
12948;DHT22;6539;49.476;8.484;2024-02-26T11:30:10;14.60;99.90
12948;DHT22;6539;49.476;8.484;2024-02-26T11:33:00;14.10;99.90
12948;DHT22;6539;49.476;8.484;2024-02-26T11:35:47;14.10;99.90
12948;DHT22;6539;49.476;8.484;2024-02-26T11:38:33;14.10;99.90
12948;DHT22;6539;49.476;8.484;2024-02-26T11:41:24;14.00;99.90
12948;DHT22;6539;49.476;8.484;2024-02-26T11:44:28;14.00;99.90
12948;DHT22;6539;49.476;8.484;2024-02-26T11:47:20;14.30;99.90
12948;DHT22;6539;49.476;8.484;2024-02-26T11:50:45;14.00;99.90
12948;DHT22;6539;49.476;8.484;2024-02-26T11:53:33;14.10;99.90
12948;DHT22;6539;49.476;8.484;2024-02-26T11:56:21;14.20;99.90
12948;DHT22;6539;49.476;8.484;2024-02-26T11:59:12;14.30;99.90
12948;DHT22;6539;49.476;8.484;2024-02-26T12:05:32;13.90;99.90
12948;DHT22;6539;49.476;8.484;2024-02-26T12:08:21;14.00;99.90
12948;DHT22;6539;49.476;8.484;2024-02-26T12:11:17;13.70;99.90
12948;DHT22;6539;49.476;8.484;2024-02-26T12:14:07;14.30;99.90
12948;DHT22;6539;49.476;8.484;2024-02-26T12:16:57;14.30;99.90
12948;DHT22;6539;49.476;8.484;2024-02-26T12:19:44;14.50;99.90
12948;DHT22;6539;49.476;8.484;2024-02-26T12:22:33;14.70;99.90
12948;DHT22;6539;49.476;8.484;2024-02-26T12:25:24;14.90;99.90
12948;DHT22;6539;49.476;8.484;2024-02-26T12:28:16;15.20;99.90
12948;DHT22;6539;49.476;8.484;2024-02-26T12:31:02;16.00;99.90
12948;DHT22;6539;49.476;8.484;2024-02-26T12:33:52;16.60;99.90
12948;DHT22;6539;49.476;8.484;2024-02-26T12:36:38;17.30;99.90
12948;DHT22;6539;49.476;8.484;2024-02-26T12:39:25;18.10;99.90
12948;DHT22;6539;49.476;8.484;2024-02-26T12:42:14;18.60;99.90
12948;DHT22;6539;49.476;8.484;2024-02-26T12:45:00;18.80;99.90
12948;DHT22;6539;49.476;8.484;2024-02-26T12:47:47;18.50;99.90
12948;DHT22;6539;49.476;8.484;2024-02-26T12:50:35;19.40;99.90
12948;DHT22;6539;49.476;8.484;2024-02-26T12:53:23;19.10;99.90
12948;DHT22;6539;49.476;8.484;2024-02-26T12:56:11;18.80;99.90
12948;DHT22;6539;49.476;8.484;2024-02-26T12:59:00;18.10;99.90
12948;DHT22;6539;49.476;8.484;2024-02-26T13:01:49;17.70;99.90
12948;DHT22;6539;49.476;8.484;2024-02-26T13:04:38;17.70;99.90
12948;DHT22;6539;49.476;8.484;2024-02-26T13:07:24;18.40;99.90
12948;DHT22;6539;49.476;8.484;2024-02-26T13:10:11;19.20;99.90
12948;DHT22;6539;49.476;8.484;2024-02-26T13:13:01;19.80;99.90
12948;DHT22;6539;49.476;8.484;2024-02-26T13:16:08;19.60;99.90
12948;DHT22;6539;49.476;8.484;2024-02-26T13:18:56;18.60;99.90
12948;DHT22;6539;49.476;8.484;2024-02-26T13:21:44;18.60;99.90
12948;DHT22;6539;49.476;8.484;2024-02-26T13:24:30;18.90;99.90
12948;DHT22;6539;49.476;8.484;2024-02-26T13:27:22;18.30;99.90
12948;DHT22;6539;49.476;8.484;2024-02-26T13:30:10;18.20;99.90
12948;DHT22;6539;49.476;8.484;2024-02-26T13:33:09;17.70;99.90
12948;DHT22;6539;49.476;8.484;2024-02-26T13:35:59;17.90;99.90
12948;DHT22;6539;49.476;8.484;2024-02-26T13:38:53;17.80;99.90
12948;DHT22;6539;49.476;8.484;2024-02-26T13:41:40;18.70;99.90
12948;DHT22;6539;49.476;8.484;2024-02-26T13:44:31;19.70;99.90
12948;DHT22;6539;49.476;8.484;2024-02-26T13:47:19;18.70;99.90
12948;DHT22;6539;49.476;8.484;2024-02-26T13:50:07;18.40;99.90
12948;DHT22;6539;49.476;8.484;2024-02-26T13:52:54;18.60;99.90
12948;DHT22;6539;49.476;8.484;2024-02-26T13:55:41;18.30;99.90
12948;DHT22;6539;49.476;8.484;2024-02-26T13:58:29;18.20;99.90
12948;DHT22;6539;49.476;8.484;2024-02-26T14:01:17;18.50;99.90
12948;DHT22;6539;49.476;8.484;2024-02-26T14:04:06;18.40;99.90
12948;DHT22;6539;49.476;8.484;2024-02-26T14:06:54;18.40;99.90
12948;DHT22;6539;49.476;8.484;2024-02-26T14:09:43;18.40;99.90
12948;DHT22;6539;49.476;8.484;2024-02-26T14:12:31;18.60;99.90
12948;DHT22;6539;49.476;8.484;2024-02-26T14:15:19;18.70;99.90
12948;DHT22;6539;49.476;8.484;2024-02-26T14:18:07;19.00;99.90
12948;DHT22;6539;49.476;8.484;2024-02-26T14:20:53;19.30;99.90
12948;DHT22;6539;49.476;8.484;2024-02-26T14:23:39;18.90;99.90
12948;DHT22;6539;49.476;8.484;2024-02-26T14:26:28;18.80;99.90
12948;DHT22;6539;49.476;8.484;2024-02-26T14:29:14;18.70;99.90
12948;DHT22;6539;49.476;8.484;2024-02-26T14:32:03;18.30;99.90
12948;DHT22;6539;49.476;8.484;2024-02-26T14:34:50;17.90;99.90
12948;DHT22;6539;49.476;8.484;2024-02-26T14:37:38;17.50;99.90
12948;DHT22;6539;49.476;8.484;2024-02-26T14:40:24;16.80;99.90
12948;DHT22;6539;49.476;8.484;2024-02-26T14:43:16;16.30;99.90
12948;DHT22;6539;49.476;8.484;2024-02-26T14:46:02;16.30;99.90
12948;DHT22;6539;49.476;8.484;2024-02-26T14:48:53;16.20;99.90
12948;DHT22;6539;49.476;8.484;2024-02-26T14:51:40;15.90;99.90
12948;DHT22;6539;49.476;8.484;2024-02-26T14:54:29;15.60;99.90
12948;DHT22;6539;49.476;8.484;2024-02-26T14:57:24;15.50;99.90
12948;DHT22;6539;49.476;8.484;2024-02-26T15:00:12;15.50;99.90
12948;DHT22;6539;49.476;8.484;2024-02-26T15:02:59;15.50;99.90
12948;DHT22;6539;49.476;8.484;2024-02-26T15:05:45;15.40;99.90
12948;DHT22;6539;49.476;8.484;2024-02-26T15:08:31;15.30;99.90
12948;DHT22;6539;49.476;8.484;2024-02-26T15:11:17;15.30;99.90
12948;DHT22;6539;49.476;8.484;2024-02-26T15:14:03;15.20;99.90
12948;DHT22;6539;49.476;8.484;2024-02-26T15:16:51;15.10;99.90
12948;DHT22;6539;49.476;8.484;2024-02-26T15:19:40;15.00;99.90
12948;DHT22;6539;49.476;8.484;2024-02-26T15:22:28;14.80;99.90
12948;DHT22;6539;49.476;8.484;2024-02-26T15:25:14;14.70;99.90
12948;DHT22;6539;49.476;8.484;2024-02-26T15:28:02;14.60;99.90
12948;DHT22;6539;49.476;8.484;2024-02-26T15:30:48;14.60;99.90
12948;DHT22;6539;49.476;8.484;2024-02-26T15:33:34;14.70;99.90
12948;DHT22;6539;49.476;8.484;2024-02-26T15:36:23;14.60;99.90
12948;DHT22;6539;49.476;8.484;2024-02-26T15:39:11;14.60;99.90
12948;DHT22;6539;49.476;8.484;2024-02-26T15:41:59;14.60;99.90
12948;DHT22;6539;49.476;8.484;2024-02-26T15:44:48;14.60;99.90
12948;DHT22;6539;49.476;8.484;2024-02-26T15:47:34;14.60;99.90
12948;DHT22;6539;49.476;8.484;2024-02-26T15:50:21;14.60;99.90
12948;DHT22;6539;49.476;8.484;2024-02-26T15:53:09;14.50;99.90
12948;DHT22;6539;49.476;8.484;2024-02-26T15:55:55;14.50;99.90
12948;DHT22;6539;49.476;8.484;2024-02-26T15:58:42;14.50;99.90
12948;DHT22;6539;49.476;8.484;2024-02-26T16:01:28;14.40;99.90
12948;DHT22;6539;49.476;8.484;2024-02-26T16:04:14;14.50;99.90
12948;DHT22;6539;49.476;8.484;2024-02-26T16:07:05;14.40;99.90
12948;DHT22;6539;49.476;8.484;2024-02-26T16:09:58;14.40;99.90
12948;DHT22;6539;49.476;8.484;2024-02-26T16:12:52;14.40;99.90
12948;DHT22;6539;49.476;8.484;2024-02-26T16:15:47;14.40;99.90
12948;DHT22;6539;49.476;8.484;2024-02-26T16:18:37;14.40;99.90
12948;DHT22;6539;49.476;8.484;2024-02-26T16:21:28;14.30;99.90
12948;DHT22;6539;49.476;8.484;2024-02-26T16:24:14;14.20;99.90
12948;DHT22;6539;49.476;8.484;2024-02-26T16:27:03;14.10;99.90
12948;DHT22;6539;49.476;8.484;2024-02-26T16:29:49;14.10;99.90
12948;DHT22;6539;49.476;8.484;2024-02-26T16:32:42;14.00;99.90
12948;DHT22;6539;49.476;8.484;2024-02-26T16:35:31;13.90;99.90
12948;DHT22;6539;49.476;8.484;2024-02-26T16:38:21;13.80;99.90
12948;DHT22;6539;49.476;8.484;2024-02-26T16:41:09;13.70;99.90
12948;DHT22;6539;49.476;8.484;2024-02-26T16:43:55;13.70;99.90
12948;DHT22;6539;49.476;8.484;2024-02-26T16:46:41;13.60;99.90
12948;DHT22;6539;49.476;8.484;2024-02-26T16:49:27;13.50;99.90
12948;DHT22;6539;49.476;8.484;2024-02-26T16:52:14;13.40;99.90
12948;DHT22;6539;49.476;8.484;2024-02-26T16:55:06;13.40;99.90
12948;DHT22;6539;49.476;8.484;2024-02-26T16:57:57;13.40;99.90
12948;DHT22;6539;49.476;8.484;2024-02-26T17:00:45;13.30;99.90
12948;DHT22;6539;49.476;8.484;2024-02-26T17:03:34;13.30;99.90
12948;DHT22;6539;49.476;8.484;2024-02-26T17:06:20;13.20;99.90
12948;DHT22;6539;49.476;8.484;2024-02-26T17:09:10;13.20;99.90
12948;DHT22;6539;49.476;8.484;2024-02-26T17:11:58;13.10;99.90
12948;DHT22;6539;49.476;8.484;2024-02-26T17:14:50;13.00;99.90
12948;DHT22;6539;49.476;8.484;2024-02-26T17:17:37;12.90;99.90
12948;DHT22;6539;49.476;8.484;2024-02-26T17:20:23;12.90;99.90
12948;DHT22;6539;49.476;8.484;2024-02-26T17:23:12;12.80;99.90
12948;DHT22;6539;49.476;8.484;2024-02-26T17:26:02;12.80;99.90
12948;DHT22;6539;49.476;8.484;2024-02-26T17:28:51;12.70;99.90
12948;DHT22;6539;49.476;8.484;2024-02-26T17:31:37;12.70;99.90
12948;DHT22;6539;49.476;8.484;2024-02-26T17:34:30;12.70;99.90
12948;DHT22;6539;49.476;8.484;2024-02-26T17:37:16;12.60;99.90
12948;DHT22;6539;49.476;8.484;2024-02-26T17:40:04;12.60;99.90
12948;DHT22;6539;49.476;8.484;2024-02-26T17:42:54;12.60;99.90
12948;DHT22;6539;49.476;8.484;2024-02-26T17:45:44;12.50;99.90
12948;DHT22;6539;49.476;8.484;2024-02-26T17:48:31;12.50;99.90
12948;DHT22;6539;49.476;8.484;2024-02-26T17:51:17;12.50;99.90
12948;DHT22;6539;49.476;8.484;2024-02-26T17:54:03;12.40;99.90
12948;DHT22;6539;49.476;8.484;2024-02-26T17:56:52;12.40;99.90
12948;DHT22;6539;49.476;8.484;2024-02-26T17:59:38;12.40;99.90
12948;DHT22;6539;49.476;8.484;2024-02-26T18:02:24;12.30;99.90
12948;DHT22;6539;49.476;8.484;2024-02-26T18:05:13;12.30;99.90
12948;DHT22;6539;49.476;8.484;2024-02-26T18:08:02;12.30;99.90
12948;DHT22;6539;49.476;8.484;2024-02-26T18:10:51;12.30;99.90